WZZ64GE LHBP-LYPG
Flight info
| Callsign | WZZ64GE |
|---|---|
| Flight time | 1h 1m |
| Altitude | 37000 |
| Route | FAHAZ DCT KEROP DCT TADAM DCT MOJ |
| Aircraft | A21N/M-SDE3FGHIRWY/LB1 |
Departure
| Time | 2026-05-08 18:37 |
|---|---|
| Airport | Budapest Liszt Ferenc International Airport (LHBP) |
Arrival
| Time | 2026-05-08 19:39 |
|---|---|
| Airport | Podgorica Airport / Podgorica Golubovci Airbase (LYPG) |
| Time | Latitude | Longitude | Altitude | Speed | Heading |
|---|---|---|---|---|---|
| 2026-05-08 18:07 | 47.43457 | 19.25694 | 468 ft | 0 kts | 312° |
| 2026-05-08 18:27 | 47.43452 | 19.25703 | 468 ft | 2 kts | 318° |
| 2026-05-08 18:27 | 47.43439 | 19.25714 | 468 ft | 2 kts | 342° |
| 2026-05-08 18:28 | 47.43424 | 19.25717 | 467 ft | 2 kts | 2° |
| 2026-05-08 18:28 | 47.43409 | 19.25713 | 467 ft | 2 kts | 22° |
| 2026-05-08 18:28 | 47.43398 | 19.25704 | 467 ft | 0 kts | 40° |
| 2026-05-08 18:28 | 47.43393 | 19.25697 | 466 ft | 1 kts | 44° |
| 2026-05-08 18:29 | 47.43392 | 19.25696 | 466 ft | 0 kts | 43° |
| 2026-05-08 18:31 | 47.43395 | 19.25700 | 466 ft | 1 kts | 43° |
| 2026-05-08 18:31 | 47.43409 | 19.25720 | 467 ft | 4 kts | 42° |
| 2026-05-08 18:31 | 47.43438 | 19.25759 | 468 ft | 7 kts | 43° |
| 2026-05-08 18:31 | 47.43480 | 19.25794 | 470 ft | 6 kts | 345° |
| 2026-05-08 18:32 | 47.43526 | 19.25733 | 470 ft | 10 kts | 313° |
| 2026-05-08 18:32 | 47.43545 | 19.25661 | 470 ft | 8 kts | 246° |
| 2026-05-08 18:32 | 47.43491 | 19.25582 | 468 ft | 12 kts | 222° |
| 2026-05-08 18:32 | 47.43421 | 19.25489 | 466 ft | 14 kts | 222° |
| 2026-05-08 18:33 | 47.43340 | 19.25381 | 463 ft | 17 kts | 222° |
| 2026-05-08 18:33 | 47.43246 | 19.25255 | 459 ft | 19 kts | 222° |
| 2026-05-08 18:33 | 47.43178 | 19.25163 | 455 ft | 5 kts | 222° |
| 2026-05-08 18:33 | 47.43166 | 19.25147 | 454 ft | 0 kts | 222° |
| 2026-05-08 18:35 | 47.43161 | 19.25140 | 454 ft | 3 kts | 222° |
| 2026-05-08 18:35 | 47.43124 | 19.25091 | 452 ft | 11 kts | 222° |
| 2026-05-08 18:35 | 47.43067 | 19.25014 | 448 ft | 4 kts | 232° |
| 2026-05-08 18:35 | 47.43076 | 19.24976 | 447 ft | 1 kts | 311° |
| 2026-05-08 18:36 | 47.43078 | 19.24973 | 447 ft | 0 kts | 312° |
| 2026-05-08 18:36 | 47.43162 | 19.24839 | 445 ft | 51 kts | 313° |
| 2026-05-08 18:36 | 47.43568 | 19.24182 | 433 ft | 119 kts | 312° |
| 2026-05-08 18:36 | 47.44253 | 19.23071 | 460 ft | 170 kts | 313° |
| 2026-05-08 18:37 | 47.45067 | 19.21756 | 950 ft | 176 kts | 313° |
| 2026-05-08 18:37 | 47.45891 | 19.20428 | 1658 ft | 177 kts | 314° |
| 2026-05-08 18:37 | 47.46704 | 19.19119 | 2401 ft | 174 kts | 314° |
| 2026-05-08 18:37 | 47.47539 | 19.17778 | 2875 ft | 184 kts | 314° |
| 2026-05-08 18:38 | 47.48372 | 19.16256 | 3252 ft | 202 kts | 299° |
| 2026-05-08 18:38 | 47.48537 | 19.14124 | 3573 ft | 225 kts | 258° |
| 2026-05-08 18:38 | 47.47799 | 19.11952 | 3869 ft | 250 kts | 240° |
| 2026-05-08 18:38 | 47.46942 | 19.09614 | 4256 ft | 268 kts | 245° |
| 2026-05-08 18:39 | 47.45986 | 19.07188 | 4851 ft | 280 kts | 231° |
| 2026-05-08 18:39 | 47.44442 | 19.05497 | 5639 ft | 283 kts | 201° |
| 2026-05-08 18:39 | 47.42543 | 19.04839 | 6461 ft | 283 kts | 192° |
| 2026-05-08 18:39 | 47.40689 | 19.03923 | 7204 ft | 285 kts | 203° |
| 2026-05-08 18:40 | 47.38891 | 19.02697 | 7983 ft | 288 kts | 206° |
| 2026-05-08 18:40 | 47.37028 | 19.01649 | 8719 ft | 291 kts | 193° |
| 2026-05-08 18:40 | 47.35026 | 19.01290 | 9451 ft | 293 kts | 180° |
| 2026-05-08 18:40 | 47.33001 | 19.01585 | 10165 ft | 296 kts | 168° |
| 2026-05-08 18:41 | 47.31018 | 19.02519 | 10631 ft | 307 kts | 156° |
| 2026-05-08 18:41 | 47.29135 | 19.04155 | 10941 ft | 323 kts | 143° |
| 2026-05-08 18:41 | 47.27386 | 19.06279 | 11485 ft | 330 kts | 142° |
| 2026-05-08 18:41 | 47.25478 | 19.08144 | 12134 ft | 331 kts | 153° |
| 2026-05-08 18:42 | 47.23391 | 19.09550 | 12807 ft | 332 kts | 158° |
| 2026-05-08 18:42 | 47.21257 | 19.10863 | 13452 ft | 334 kts | 159° |
| 2026-05-08 18:42 | 47.19101 | 19.12139 | 14084 ft | 336 kts | 159° |
| 2026-05-08 18:42 | 47.16919 | 19.13412 | 14678 ft | 340 kts | 160° |
| 2026-05-08 18:43 | 47.14718 | 19.14691 | 15267 ft | 342 kts | 160° |
| 2026-05-08 18:43 | 47.12502 | 19.15977 | 15854 ft | 344 kts | 160° |
| 2026-05-08 18:43 | 47.10271 | 19.17273 | 16401 ft | 347 kts | 160° |
| 2026-05-08 18:43 | 47.08017 | 19.18580 | 16944 ft | 350 kts | 160° |
| 2026-05-08 18:44 | 47.05747 | 19.19897 | 17453 ft | 353 kts | 160° |
| 2026-05-08 18:44 | 47.03455 | 19.21227 | 17956 ft | 356 kts | 160° |
| 2026-05-08 18:44 | 47.01147 | 19.22565 | 18440 ft | 359 kts | 160° |
| 2026-05-08 18:44 | 46.98812 | 19.23916 | 18933 ft | 362 kts | 160° |
| 2026-05-08 18:45 | 46.96468 | 19.25270 | 19415 ft | 364 kts | 160° |
| 2026-05-08 18:45 | 46.94106 | 19.26633 | 19898 ft | 366 kts | 160° |
| 2026-05-08 18:45 | 46.91733 | 19.27999 | 20376 ft | 368 kts | 160° |
| 2026-05-08 18:45 | 46.89347 | 19.29371 | 20844 ft | 370 kts | 160° |
| 2026-05-08 18:46 | 46.86947 | 19.30752 | 21301 ft | 372 kts | 160° |
| 2026-05-08 18:46 | 46.84539 | 19.32134 | 21735 ft | 374 kts | 160° |
| 2026-05-08 18:46 | 46.82117 | 19.33526 | 22180 ft | 376 kts | 160° |
| 2026-05-08 18:46 | 46.79674 | 19.34927 | 22603 ft | 378 kts | 160° |
| 2026-05-08 18:47 | 46.77226 | 19.36332 | 23013 ft | 380 kts | 160° |
| 2026-05-08 18:47 | 46.74766 | 19.37742 | 23408 ft | 382 kts | 160° |
| 2026-05-08 18:47 | 46.72287 | 19.39161 | 23797 ft | 385 kts | 160° |
| 2026-05-08 18:47 | 46.69793 | 19.40587 | 24184 ft | 387 kts | 161° |
| 2026-05-08 18:48 | 46.67287 | 19.42019 | 24564 ft | 390 kts | 161° |
| 2026-05-08 18:48 | 46.64760 | 19.43462 | 24936 ft | 392 kts | 161° |
| 2026-05-08 18:48 | 46.62222 | 19.44909 | 25300 ft | 394 kts | 161° |
| 2026-05-08 18:48 | 46.59673 | 19.46360 | 25660 ft | 396 kts | 161° |
| 2026-05-08 18:49 | 46.57109 | 19.47819 | 26027 ft | 397 kts | 161° |
| 2026-05-08 18:49 | 46.54534 | 19.49282 | 26367 ft | 399 kts | 161° |
| 2026-05-08 18:49 | 46.51947 | 19.50751 | 26718 ft | 401 kts | 161° |
| 2026-05-08 18:49 | 46.49348 | 19.52224 | 27045 ft | 403 kts | 161° |
| 2026-05-08 18:50 | 46.46736 | 19.53705 | 27358 ft | 405 kts | 161° |
| 2026-05-08 18:50 | 46.44114 | 19.55189 | 27669 ft | 407 kts | 161° |
| 2026-05-08 18:50 | 46.41474 | 19.56681 | 27970 ft | 409 kts | 161° |
| 2026-05-08 18:50 | 46.38824 | 19.58179 | 28278 ft | 411 kts | 161° |
| 2026-05-08 18:51 | 46.36165 | 19.59681 | 28585 ft | 413 kts | 161° |
| 2026-05-08 18:51 | 46.33488 | 19.61192 | 28879 ft | 415 kts | 161° |
| 2026-05-08 18:51 | 46.30793 | 19.62712 | 29159 ft | 417 kts | 161° |
| 2026-05-08 18:51 | 46.28088 | 19.64233 | 29433 ft | 419 kts | 161° |
| 2026-05-08 18:52 | 46.25357 | 19.65767 | 29723 ft | 421 kts | 162° |
| 2026-05-08 18:52 | 46.22606 | 19.67190 | 30011 ft | 421 kts | 167° |
| 2026-05-08 18:52 | 46.19768 | 19.68187 | 30295 ft | 420 kts | 173° |
| 2026-05-08 18:52 | 46.16888 | 19.68725 | 30578 ft | 419 kts | 179° |
| 2026-05-08 18:53 | 46.13981 | 19.68807 | 30834 ft | 418 kts | 185° |
| 2026-05-08 18:53 | 46.11090 | 19.68469 | 31103 ft | 418 kts | 189° |
| 2026-05-08 18:53 | 46.08207 | 19.68007 | 31411 ft | 418 kts | 189° |
| 2026-05-08 18:53 | 46.05320 | 19.67527 | 31687 ft | 419 kts | 189° |
| 2026-05-08 18:54 | 46.02424 | 19.67046 | 31950 ft | 420 kts | 189° |
| 2026-05-08 18:54 | 45.99522 | 19.66567 | 32216 ft | 421 kts | 189° |
| 2026-05-08 18:54 | 45.96617 | 19.66093 | 32566 ft | 420 kts | 189° |
| 2026-05-08 18:54 | 45.93723 | 19.65622 | 32983 ft | 417 kts | 189° |
| 2026-05-08 18:55 | 45.87992 | 19.64695 | 33714 ft | 414 kts | 189° |
| 2026-05-08 18:55 | 45.85136 | 19.64234 | 34068 ft | 412 kts | 189° |
| 2026-05-08 18:55 | 45.82295 | 19.63778 | 34414 ft | 411 kts | 189° |
| 2026-05-08 18:56 | 45.79474 | 19.63322 | 34710 ft | 409 kts | 189° |
| 2026-05-08 18:56 | 45.76647 | 19.62867 | 34957 ft | 409 kts | 189° |
| 2026-05-08 18:56 | 45.73822 | 19.62413 | 35143 ft | 409 kts | 189° |
| 2026-05-08 18:56 | 45.70983 | 19.61955 | 35319 ft | 410 kts | 189° |
| 2026-05-08 18:57 | 45.68143 | 19.61500 | 35504 ft | 411 kts | 189° |
| 2026-05-08 18:57 | 45.66250 | 19.61196 | 35627 ft | 411 kts | 189° |
| 2026-05-08 18:57 | 45.62455 | 19.60588 | 35839 ft | 412 kts | 189° |
| 2026-05-08 18:57 | 45.59594 | 19.60130 | 35988 ft | 414 kts | 189° |
| 2026-05-08 18:58 | 45.56734 | 19.59673 | 36141 ft | 415 kts | 190° |
| 2026-05-08 18:58 | 45.53865 | 19.59215 | 36292 ft | 415 kts | 190° |
| 2026-05-08 18:58 | 45.50993 | 19.58758 | 36438 ft | 416 kts | 189° |
| 2026-05-08 18:58 | 45.48110 | 19.58299 | 36614 ft | 417 kts | 189° |
| 2026-05-08 18:59 | 45.45226 | 19.57840 | 36777 ft | 418 kts | 190° |
| 2026-05-08 18:59 | 45.42332 | 19.57381 | 36927 ft | 419 kts | 189° |
| 2026-05-08 18:59 | 45.39434 | 19.56922 | 36996 ft | 420 kts | 190° |
| 2026-05-08 19:00 | 45.33619 | 19.56002 | 37006 ft | 421 kts | 189° |
| 2026-05-08 19:00 | 45.27800 | 19.55082 | 37006 ft | 421 kts | 189° |
| 2026-05-08 19:01 | 45.21947 | 19.54626 | 37003 ft | 424 kts | 183° |
| 2026-05-08 19:01 | 45.16056 | 19.54704 | 37005 ft | 423 kts | 183° |
| 2026-05-08 19:02 | 45.10160 | 19.54777 | 37010 ft | 423 kts | 183° |
| 2026-05-08 19:02 | 45.04269 | 19.54853 | 37008 ft | 424 kts | 183° |
| 2026-05-08 19:03 | 44.98396 | 19.54929 | 37006 ft | 423 kts | 183° |
| 2026-05-08 19:03 | 44.92514 | 19.55007 | 37006 ft | 423 kts | 183° |
| 2026-05-08 19:04 | 44.86624 | 19.55085 | 37007 ft | 424 kts | 183° |
| 2026-05-08 19:04 | 44.80739 | 19.55160 | 37009 ft | 424 kts | 182° |
| 2026-05-08 19:05 | 44.74850 | 19.55238 | 37015 ft | 424 kts | 182° |
| 2026-05-08 19:05 | 44.68957 | 19.55315 | 37020 ft | 424 kts | 182° |
| 2026-05-08 19:06 | 44.63069 | 19.55392 | 37024 ft | 425 kts | 182° |
| 2026-05-08 19:06 | 44.57174 | 19.55469 | 37018 ft | 425 kts | 182° |
| 2026-05-08 19:07 | 44.51279 | 19.55545 | 37032 ft | 425 kts | 182° |
| 2026-05-08 19:07 | 44.45381 | 19.55620 | 37035 ft | 424 kts | 182° |
| 2026-05-08 19:08 | 44.39490 | 19.55697 | 37034 ft | 425 kts | 182° |
| 2026-05-08 19:08 | 44.33589 | 19.55774 | 37035 ft | 425 kts | 182° |
| 2026-05-08 19:09 | 44.27683 | 19.55850 | 37040 ft | 426 kts | 182° |
| 2026-05-08 19:09 | 44.21768 | 19.55925 | 36889 ft | 427 kts | 182° |
| 2026-05-08 19:09 | 44.18811 | 19.55963 | 36587 ft | 425 kts | 182° |
| 2026-05-08 19:10 | 44.15873 | 19.56003 | 36226 ft | 421 kts | 182° |
| 2026-05-08 19:10 | 44.12963 | 19.56039 | 35826 ft | 418 kts | 182° |
| 2026-05-08 19:10 | 44.10057 | 19.56076 | 35325 ft | 419 kts | 182° |
| 2026-05-08 19:10 | 44.07148 | 19.56111 | 34756 ft | 420 kts | 182° |
| 2026-05-08 19:11 | 44.04227 | 19.56145 | 34092 ft | 422 kts | 181° |
| 2026-05-08 19:11 | 44.01299 | 19.56182 | 33392 ft | 423 kts | 181° |
| 2026-05-08 19:11 | 43.98367 | 19.56220 | 32714 ft | 423 kts | 181° |
| 2026-05-08 19:11 | 43.95438 | 19.56259 | 32039 ft | 422 kts | 181° |
| 2026-05-08 19:12 | 43.92514 | 19.56297 | 31369 ft | 422 kts | 181° |
| 2026-05-08 19:12 | 43.89585 | 19.56335 | 30721 ft | 421 kts | 181° |
| 2026-05-08 19:12 | 43.86678 | 19.56374 | 30285 ft | 416 kts | 181° |
| 2026-05-08 19:12 | 43.83806 | 19.56411 | 29837 ft | 412 kts | 181° |
| 2026-05-08 19:13 | 43.80962 | 19.56447 | 29377 ft | 409 kts | 181° |
| 2026-05-08 19:13 | 43.78137 | 19.56484 | 28917 ft | 405 kts | 181° |
| 2026-05-08 19:13 | 43.75336 | 19.56520 | 28461 ft | 402 kts | 181° |
| 2026-05-08 19:13 | 43.72555 | 19.56555 | 28007 ft | 399 kts | 181° |
| 2026-05-08 19:14 | 43.69792 | 19.56590 | 27557 ft | 396 kts | 181° |
| 2026-05-08 19:14 | 43.67052 | 19.56625 | 27108 ft | 393 kts | 181° |
| 2026-05-08 19:14 | 43.64333 | 19.56659 | 26664 ft | 391 kts | 181° |
| 2026-05-08 19:14 | 43.61629 | 19.56694 | 26220 ft | 388 kts | 181° |
| 2026-05-08 19:15 | 43.58947 | 19.56728 | 25781 ft | 385 kts | 181° |
| 2026-05-08 19:15 | 43.56284 | 19.56762 | 25336 ft | 383 kts | 181° |
| 2026-05-08 19:15 | 43.53633 | 19.56795 | 24896 ft | 381 kts | 181° |
| 2026-05-08 19:15 | 43.50999 | 19.56829 | 24451 ft | 379 kts | 181° |
| 2026-05-08 19:16 | 43.48378 | 19.56862 | 24012 ft | 376 kts | 181° |
| 2026-05-08 19:16 | 43.45773 | 19.56895 | 23572 ft | 374 kts | 181° |
| 2026-05-08 19:16 | 43.43180 | 19.56928 | 23139 ft | 373 kts | 181° |
| 2026-05-08 19:16 | 43.40600 | 19.56960 | 22712 ft | 371 kts | 181° |
| 2026-05-08 19:17 | 43.38031 | 19.56992 | 22277 ft | 369 kts | 181° |
| 2026-05-08 19:17 | 43.35475 | 19.57024 | 21845 ft | 367 kts | 181° |
| 2026-05-08 19:17 | 43.32927 | 19.57057 | 21405 ft | 366 kts | 181° |
| 2026-05-08 19:17 | 43.30389 | 19.57088 | 20973 ft | 365 kts | 181° |
| 2026-05-08 19:18 | 43.27863 | 19.57119 | 20532 ft | 363 kts | 181° |
| 2026-05-08 19:18 | 43.25343 | 19.57149 | 20100 ft | 362 kts | 181° |
| 2026-05-08 19:18 | 43.22835 | 19.57180 | 19658 ft | 361 kts | 181° |
| 2026-05-08 19:18 | 43.20333 | 19.57209 | 19228 ft | 359 kts | 181° |
| 2026-05-08 19:19 | 43.17847 | 19.57240 | 18796 ft | 357 kts | 180° |
| 2026-05-08 19:19 | 43.15370 | 19.57271 | 18369 ft | 356 kts | 180° |
| 2026-05-08 19:19 | 43.12905 | 19.57301 | 17935 ft | 354 kts | 180° |
| 2026-05-08 19:19 | 43.10455 | 19.57332 | 17511 ft | 353 kts | 180° |
| 2026-05-08 19:20 | 43.08010 | 19.57363 | 17086 ft | 351 kts | 180° |
| 2026-05-08 19:20 | 43.06390 | 19.57383 | 16795 ft | 350 kts | 180° |
| 2026-05-08 19:20 | 43.03158 | 19.57422 | 16214 ft | 348 kts | 179° |
| 2026-05-08 19:20 | 43.00744 | 19.57452 | 15778 ft | 347 kts | 179° |
| 2026-05-08 19:21 | 42.98338 | 19.57482 | 15353 ft | 346 kts | 179° |
| 2026-05-08 19:21 | 42.95939 | 19.57452 | 14913 ft | 345 kts | 184° |
| 2026-05-08 19:21 | 42.93582 | 19.56896 | 14478 ft | 345 kts | 195° |
| 2026-05-08 19:21 | 42.91327 | 19.55787 | 14051 ft | 345 kts | 201° |
| 2026-05-08 19:22 | 42.89129 | 19.54513 | 13618 ft | 343 kts | 202° |
| 2026-05-08 19:22 | 42.86946 | 19.53225 | 13201 ft | 342 kts | 201° |
| 2026-05-08 19:22 | 42.84768 | 19.51946 | 12774 ft | 340 kts | 202° |
| 2026-05-08 19:22 | 42.82604 | 19.50682 | 12352 ft | 339 kts | 201° |
| 2026-05-08 19:23 | 42.80444 | 19.49427 | 11939 ft | 337 kts | 201° |
| 2026-05-08 19:23 | 42.78297 | 19.48184 | 11522 ft | 335 kts | 201° |
| 2026-05-08 19:23 | 42.76166 | 19.46954 | 11109 ft | 332 kts | 201° |
| 2026-05-08 19:23 | 42.74049 | 19.45735 | 10707 ft | 330 kts | 201° |
| 2026-05-08 19:24 | 42.71946 | 19.44525 | 10315 ft | 327 kts | 200° |
| 2026-05-08 19:24 | 42.69888 | 19.43340 | 10161 ft | 315 kts | 200° |
| 2026-05-08 19:24 | 42.67908 | 19.42200 | 10026 ft | 304 kts | 200° |
| 2026-05-08 19:24 | 42.65993 | 19.41097 | 9766 ft | 298 kts | 200° |
| 2026-05-08 19:25 | 42.64103 | 19.40014 | 9504 ft | 291 kts | 200° |
| 2026-05-08 19:25 | 42.62269 | 19.38962 | 9336 ft | 282 kts | 200° |
| 2026-05-08 19:25 | 42.60496 | 19.37945 | 9147 ft | 274 kts | 200° |
| 2026-05-08 19:25 | 42.58757 | 19.36950 | 8857 ft | 269 kts | 201° |
| 2026-05-08 19:26 | 42.57045 | 19.35970 | 8548 ft | 266 kts | 201° |
| 2026-05-08 19:26 | 42.55349 | 19.35002 | 8217 ft | 263 kts | 201° |
| 2026-05-08 19:26 | 42.53660 | 19.34063 | 7934 ft | 257 kts | 196° |
| 2026-05-08 19:26 | 42.51956 | 19.33512 | 7768 ft | 251 kts | 185° |
| 2026-05-08 19:27 | 42.50227 | 19.33287 | 7445 ft | 250 kts | 182° |
| 2026-05-08 19:27 | 42.48501 | 19.33125 | 7121 ft | 248 kts | 181° |
| 2026-05-08 19:27 | 42.46778 | 19.32967 | 6803 ft | 249 kts | 181° |
| 2026-05-08 19:27 | 42.45056 | 19.32802 | 6485 ft | 249 kts | 181° |
| 2026-05-08 19:28 | 42.43329 | 19.32629 | 6164 ft | 249 kts | 181° |
| 2026-05-08 19:28 | 42.41600 | 19.32454 | 5840 ft | 249 kts | 181° |
| 2026-05-08 19:28 | 42.39878 | 19.32279 | 5527 ft | 248 kts | 182° |
| 2026-05-08 19:28 | 42.38162 | 19.32103 | 5220 ft | 247 kts | 182° |
| 2026-05-08 19:29 | 42.36458 | 19.31929 | 4935 ft | 245 kts | 182° |
| 2026-05-08 19:29 | 42.34785 | 19.31756 | 4663 ft | 237 kts | 182° |
| 2026-05-08 19:29 | 42.33177 | 19.31589 | 4396 ft | 225 kts | 182° |
| 2026-05-08 19:29 | 42.31653 | 19.31430 | 4178 ft | 218 kts | 182° |
| 2026-05-08 19:30 | 42.30152 | 19.31275 | 3869 ft | 215 kts | 182° |
| 2026-05-08 19:30 | 42.28662 | 19.31123 | 3749 ft | 215 kts | 182° |
| 2026-05-08 19:30 | 42.27192 | 19.30972 | 3574 ft | 207 kts | 182° |
| 2026-05-08 19:30 | 42.25806 | 19.30830 | 3456 ft | 192 kts | 182° |
| 2026-05-08 19:31 | 42.24521 | 19.30603 | 3282 ft | 184 kts | 197° |
| 2026-05-08 19:31 | 42.23606 | 19.29476 | 3030 ft | 185 kts | 249° |
| 2026-05-08 19:31 | 42.23545 | 19.27791 | 2766 ft | 181 kts | 280° |
| 2026-05-08 19:31 | 42.23790 | 19.26131 | 2535 ft | 180 kts | 282° |
| 2026-05-08 19:32 | 42.24121 | 19.24517 | 2271 ft | 178 kts | 301° |
| 2026-05-08 19:32 | 42.25078 | 19.23607 | 2008 ft | 172 kts | 355° |
| 2026-05-08 19:32 | 42.26226 | 19.23767 | 1826 ft | 159 kts | 13° |
| 2026-05-08 19:32 | 42.27257 | 19.24066 | 1642 ft | 146 kts | 12° |
| 2026-05-08 19:33 | 42.28246 | 19.24303 | 1444 ft | 143 kts | 11° |
| 2026-05-08 19:33 | 42.29230 | 19.24500 | 1252 ft | 143 kts | 7° |
| 2026-05-08 19:33 | 42.30218 | 19.24617 | 1056 ft | 142 kts | 5° |
| 2026-05-08 19:33 | 42.31203 | 19.24703 | 886 ft | 141 kts | 4° |
| 2026-05-08 19:34 | 42.32186 | 19.24785 | 870 ft | 141 kts | 4° |
| 2026-05-08 19:34 | 42.33122 | 19.25140 | 847 ft | 141 kts | 34° |
| 2026-05-08 19:34 | 42.33841 | 19.26041 | 888 ft | 141 kts | 46° |
| 2026-05-08 19:34 | 42.34505 | 19.27025 | 942 ft | 142 kts | 49° |
| 2026-05-08 19:35 | 42.35158 | 19.28025 | 961 ft | 142 kts | 49° |
| 2026-05-08 19:35 | 42.35812 | 19.29020 | 972 ft | 141 kts | 47° |
| 2026-05-08 19:35 | 42.36508 | 19.29961 | 976 ft | 142 kts | 36° |
| 2026-05-08 19:35 | 42.37441 | 19.30357 | 1012 ft | 143 kts | 6° |
| 2026-05-08 19:36 | 42.38435 | 19.30446 | 1017 ft | 143 kts | 3° |
| 2026-05-08 19:36 | 42.39431 | 19.30465 | 1035 ft | 143 kts | 353° |
| 2026-05-08 19:36 | 42.40342 | 19.29954 | 995 ft | 143 kts | 323° |
| 2026-05-08 19:36 | 42.40985 | 19.28934 | 984 ft | 144 kts | 298° |
| 2026-05-08 19:37 | 42.41273 | 19.27644 | 952 ft | 144 kts | 277° |
| 2026-05-08 19:37 | 42.41121 | 19.26330 | 867 ft | 145 kts | 233° |
| 2026-05-08 19:37 | 42.40266 | 19.25687 | 763 ft | 144 kts | 190° |
| 2026-05-08 19:37 | 42.39273 | 19.25517 | 622 ft | 144 kts | 183° |
| 2026-05-08 19:38 | 42.38278 | 19.25423 | 434 ft | 143 kts | 184° |
| 2026-05-08 19:38 | 42.37289 | 19.25323 | 207 ft | 142 kts | 184° |
| 2026-05-08 19:38 | 42.36365 | 19.25230 | 111 ft | 104 kts | 182° |
| 2026-05-08 19:38 | 42.35853 | 19.25177 | 101 ft | 61 kts | 184° |
| 2026-05-08 19:39 | 42.35465 | 19.25138 | 96 ft | 44 kts | 184° |
| 2026-05-08 19:39 | 42.35227 | 19.25114 | 91 ft | 30 kts | 184° |
| 2026-05-08 19:39 | 42.35019 | 19.25093 | 87 ft | 29 kts | 184° |
| 2026-05-08 19:39 | 42.34869 | 19.25075 | 85 ft | 10 kts | 199° |
| 2026-05-08 19:40 | 42.34842 | 19.24985 | 84 ft | 12 kts | 273° |
| 2026-05-08 19:40 | 42.34847 | 19.24875 | 84 ft | 9 kts | 275° |
| 2026-05-08 19:40 | 42.34896 | 19.24839 | 84 ft | 9 kts | 2° |
| 2026-05-08 19:40 | 42.34978 | 19.24848 | 84 ft | 13 kts | 4° |
| 2026-05-08 19:41 | 42.35079 | 19.24857 | 86 ft | 15 kts | 4° |
| 2026-05-08 19:41 | 42.35194 | 19.24869 | 88 ft | 19 kts | 4° |
| 2026-05-08 19:41 | 42.35345 | 19.24884 | 91 ft | 24 kts | 4° |
| 2026-05-08 19:41 | 42.35513 | 19.24901 | 94 ft | 23 kts | 4° |
| 2026-05-08 19:42 | 42.35665 | 19.24917 | 97 ft | 20 kts | 4° |
| 2026-05-08 19:42 | 42.35801 | 19.24932 | 100 ft | 18 kts | 4° |
| 2026-05-08 19:42 | 42.35928 | 19.24945 | 102 ft | 18 kts | 4° |
| 2026-05-08 19:42 | 42.36053 | 19.24958 | 104 ft | 18 kts | 4° |
| 2026-05-08 19:43 | 42.36178 | 19.24970 | 107 ft | 17 kts | 4° |
| 2026-05-08 19:43 | 42.36299 | 19.24983 | 107 ft | 17 kts | 4° |
| 2026-05-08 19:43 | 42.36417 | 19.24995 | 109 ft | 16 kts | 4° |
| 2026-05-08 19:43 | 42.36523 | 19.25006 | 111 ft | 14 kts | 4° |
| 2026-05-08 19:44 | 42.36604 | 19.25013 | 112 ft | 5 kts | 350° |
| 2026-05-08 19:44 | 42.36629 | 19.24954 | 112 ft | 10 kts | 276° |
| 2026-05-08 19:44 | 42.36642 | 19.24854 | 110 ft | 10 kts | 315° |
| 2026-05-08 19:44 | 42.36684 | 19.24785 | 110 ft | 4 kts | 276° |
| 2026-05-08 19:45 | 42.36688 | 19.24756 | 110 ft | 3 kts | 302° |
| 2026-05-08 19:45 | 42.36690 | 19.24752 | 110 ft | 0 kts | 309° |